Tuesday, October 16, 2018, 7:03 PM EDT
Back to Local

KILG, Wilmington New Castle Co

Location: New Castle, DE, United States Lat: 39.667
Local Time: 7:03 PM EDT (23:03 GMT) Lon: -75.6
Time Zone: US/Eastern Elev: 78 ft

Show me the last for .
Show Decoded

2018-10-16 18:51 METAR KILG 162251Z 21004KT 10SM CLR 12/05 A3011 RMK AO2 SLP194 T01220050 =
2018-10-16 17:51 METAR KILG 162151Z 23005KT 10SM CLR 13/04 A3011 RMK AO2 SLP196 T01280044 =
2018-10-16 16:51 METAR KILG 162051Z 26007KT 10SM CLR 14/03 A3012 RMK AO2 SLP198 T01390033 55012 =
2018-10-16 15:51 METAR KILG 161951Z 30009KT 10SM CLR 14/02 A3011 RMK AO2 SLP196 T01390022 =
2018-10-16 14:51 METAR KILG 161851Z 28008KT 10SM CLR 14/02 A3013 RMK AO2 SLP203 T01390017 =
2018-10-16 13:51 METAR KILG 161751Z 31007KT 10SM CLR 14/02 A3015 RMK AO2 SLP210 T01390022 10144
                 20106 58022 =
2018-10-16 12:51 METAR KILG 161651Z 31009KT 10SM CLR 14/02 A3019 RMK AO2 SLP224 T01390022 =
2018-10-16 11:51 METAR KILG 161551Z 32007KT 10SM CLR 13/02 A3021 RMK AO2 SLP228 T01280022 =
2018-10-16 10:51 METAR KILG 161451Z 32007KT 10SM CLR 12/02 A3022 RMK AO2 SLP232 T01220022 50009 =
2018-10-16 09:51 METAR KILG 161351Z 33010G19KT 10SM CLR 12/02 A3022 RMK AO2 SLP234 T01220022 =
2018-10-16 08:51 METAR KILG 161251Z 34011KT 10SM CLR 11/03 A3021 RMK AO2 SLP230 T01110028 =
2018-10-16 07:51 METAR KILG 161151Z 36008KT 10SM CLR 11/04 A3019 RMK AO2 SLP223 70016 T01110044
                 10156 20100 53026 =
2018-10-16 06:51 METAR KILG 161051Z 31010KT 10SM CLR 11/04 A3016 RMK AO2 SLP211 T01110044 =
2018-10-16 06:21 METAR KILG 161021Z 31009KT 10SM CLR 11/04 A3014 RMK AO2 T01060044 =
2018-10-16 05:51 METAR KILG 160951Z AUTO 31005KT 10SM CLR 11/04 A3014 RMK AO2 SLP206 T01110044 =
2018-10-16 04:51 METAR KILG 160851Z 31012KT 10SM CLR 12/04 A3011 RMK AO2 SLP196 T01220039 51024 =
2018-10-16 03:51 METAR KILG 160751Z 32010KT 10SM FEW085 FEW120 13/06 A3010 RMK AO2 SLP193
                 T01330061 =
2018-10-16 02:51 METAR KILG 160651Z 32017G22KT 10SM FEW070 BKN085 14/08 A3006 RMK AO2 PK WND
                 34033/0608 SLP180 T01390078 =
2018-10-16 01:51 METAR KILG 160551Z 32019G24KT 10SM FEW110 16/11 A3004 RMK AO2 RAE17 SLP172 P0000
                 60005 T01560111 10194 20150 53033 =
2018-10-16 00:51 METAR KILG 160451Z 32017G23KT 10SM -RA FEW019 OVC045 16/13 A3001 RMK AO2 SLP161
                 P0001 T01610133 402000128 =
2018-10-16 00:11 METAR KILG 160411Z 32013G23KT 10SM -RA SCT026 SCT050 BKN075 17/16 A2997 RMK AO2
                 P0001 T01720156 =
2018-10-15 23:51 METAR KILG 160351Z 32020G31KT 7SM -RA FEW013 SCT018 OVC026 18/16 A2996 RMK AO2
                 PK WND 31031/0349 RAB02 SLP146 P0004 T01780156 =
2018-10-15 23:36 METAR KILG 160336Z 27007KT 8SM RA FEW021 BKN027 OVC050 19/18 A2995 RMK AO2 RAB02
                 P0002 T01940183 =
2018-10-15 22:51 METAR KILG 160251Z 25008KT 10SM BKN060 19/18 A2994 RMK AO2 RAE0156B25E34 SLP139
                 P0000 60000 T01940183 53002 =
2018-10-15 21:51 METAR KILG 160151Z 23008KT 10SM -RA BKN070 OVC100 19/18 A2994 RMK AO2
                 RAB0052E05B28 SLP138 P0000 T01940183 =
2018-10-15 20:51 METAR KILG 160051Z 23006KT 10SM SCT070 SCT090 BKN110 19/18 A2994 RMK AO2
                 RAB17E44 SLP138 P0000 T01940178 =
2018-10-15 19:51 METAR KILG 152351Z 23004KT 10SM OVC060 19/18 A2994 RMK AO2 SLP138 60001
                 T01940178 10200 20189 56010 =

Support USWX by starting your Amazon purchase here.